createdAt,value
2023-05-19T00:02:46.974Z,16.70
2023-05-19T00:05:36.541Z,16.70
2023-05-19T00:08:27.030Z,16.60
2023-05-19T00:11:14.458Z,16.60
2023-05-19T00:14:02.345Z,16.50
2023-05-19T00:16:49.963Z,16.50
2023-05-19T00:19:38.119Z,16.50
2023-05-19T00:22:25.980Z,16.40
2023-05-19T00:25:13.197Z,16.40
2023-05-19T00:28:00.704Z,16.40
2023-05-19T00:30:48.005Z,16.40
2023-05-19T00:33:38.556Z,16.30
2023-05-19T00:36:26.124Z,16.30
2023-05-19T00:39:13.552Z,16.30
2023-05-19T00:42:00.800Z,16.20
2023-05-19T00:44:47.996Z,16.20
2023-05-19T00:47:35.343Z,16.20
2023-05-19T00:50:24.396Z,16.20
2023-05-19T00:53:14.466Z,16.10
2023-05-19T00:56:03.100Z,16.10
2023-05-19T00:58:52.201Z,16.00
2023-05-19T01:01:39.712Z,16.00
2023-05-19T01:04:27.109Z,15.90
2023-05-19T01:07:15.350Z,15.90
2023-05-19T01:10:03.117Z,15.90
2023-05-19T01:12:50.456Z,15.80
2023-05-19T01:15:57.791Z,15.80
2023-05-19T01:18:51.036Z,15.80
2023-05-19T01:22:03.229Z,15.70
2023-05-19T01:24:54.856Z,15.70
2023-05-19T01:28:33.793Z,15.60
2023-05-19T01:31:24.040Z,15.50
2023-05-19T01:34:13.212Z,15.50
2023-05-19T01:37:01.786Z,15.40
2023-05-19T01:39:49.758Z,15.40
2023-05-19T01:42:40.027Z,15.40
2023-05-19T01:45:29.573Z,15.30
2023-05-19T01:48:17.494Z,15.30
2023-05-19T01:51:05.015Z,15.30
2023-05-19T01:53:52.299Z,15.30
2023-05-19T01:56:47.061Z,15.20
2023-05-19T01:59:51.174Z,15.20
2023-05-19T02:02:57.393Z,15.20
2023-05-19T02:05:57.846Z,15.10
2023-05-19T02:08:58.849Z,15.10
2023-05-19T02:12:01.171Z,15.10
2023-05-19T02:14:54.323Z,15.10
2023-05-19T02:17:47.848Z,15.00
2023-05-19T02:20:35.408Z,15.00
2023-05-19T02:23:22.683Z,14.90
2023-05-19T02:26:09.908Z,14.90
2023-05-19T02:28:57.114Z,14.90
2023-05-19T02:31:44.441Z,14.80
2023-05-19T02:34:31.832Z,14.80
2023-05-19T02:37:19.160Z,14.80
2023-05-19T02:40:07.054Z,14.70
2023-05-19T02:42:54.356Z,14.80
2023-05-19T02:45:41.552Z,14.70
2023-05-19T02:48:28.777Z,14.70
2023-05-19T02:51:16.019Z,14.70
2023-05-19T02:54:03.237Z,14.60
2023-05-19T02:56:50.469Z,14.60
2023-05-19T02:59:37.775Z,14.60
2023-05-19T03:02:25.161Z,14.60
2023-05-19T03:05:12.446Z,14.60
2023-05-19T03:07:59.727Z,14.50
2023-05-19T03:10:48.248Z,14.50
2023-05-19T03:13:35.749Z,14.50
2023-05-19T03:16:23.066Z,14.40
2023-05-19T03:19:10.474Z,14.40
2023-05-19T03:21:58.140Z,14.40
2023-05-19T03:24:45.418Z,14.40
2023-05-19T03:27:32.674Z,14.40
2023-05-19T03:30:19.963Z,14.30
2023-05-19T03:33:08.446Z,14.30
2023-05-19T03:35:57.377Z,14.30
2023-05-19T03:38:44.647Z,14.30
2023-05-19T03:41:31.883Z,14.20
2023-05-19T03:44:19.572Z,14.20
2023-05-19T03:47:06.896Z,14.20
2023-05-19T03:49:54.163Z,14.20
2023-05-19T03:52:46.666Z,14.20
2023-05-19T03:55:34.001Z,14.10
2023-05-19T03:58:21.235Z,14.10
2023-05-19T04:01:08.470Z,14.10
2023-05-19T04:03:55.849Z,14.10
2023-05-19T04:06:43.149Z,14.10
2023-05-19T04:09:32.462Z,14.10
2023-05-19T04:12:19.697Z,14.00
2023-05-19T04:15:07.651Z,14.00
2023-05-19T04:17:55.808Z,14.00
2023-05-19T04:20:43.077Z,14.00
2023-05-19T04:23:30.295Z,14.00
2023-05-19T04:26:19.383Z,14.00
2023-05-19T04:29:06.588Z,14.00
2023-05-19T04:31:53.807Z,14.00
2023-05-19T04:34:45.309Z,14.00
2023-05-19T04:37:32.593Z,14.00
2023-05-19T04:40:21.271Z,14.00
2023-05-19T04:43:09.563Z,14.10
2023-05-19T04:45:58.215Z,14.10
2023-05-19T04:48:45.602Z,14.20
2023-05-19T04:51:32.951Z,14.20
2023-05-19T04:54:20.166Z,14.20
2023-05-19T04:57:07.859Z,14.20
2023-05-19T05:00:00.013Z,14.30
2023-05-19T05:03:35.440Z,14.30
2023-05-19T05:06:22.787Z,14.30
2023-05-19T05:09:10.552Z,14.30
2023-05-19T05:11:58.214Z,14.40
2023-05-19T05:14:45.832Z,14.40
2023-05-19T05:17:35.634Z,14.40
2023-05-19T05:20:23.384Z,14.50
2023-05-19T05:23:14.611Z,14.60
2023-05-19T05:26:10.013Z,14.60
2023-05-19T05:28:57.297Z,14.70
2023-05-19T05:31:44.570Z,14.80
2023-05-19T05:34:32.034Z,14.80
2023-05-19T05:37:19.336Z,14.90
2023-05-19T05:40:07.253Z,14.90
2023-05-19T05:42:57.944Z,15.00
2023-05-19T05:45:45.145Z,15.10
2023-05-19T05:48:32.695Z,15.20
2023-05-19T05:51:23.955Z,15.20
2023-05-19T05:54:13.042Z,15.30
2023-05-19T05:57:00.724Z,15.40
2023-05-19T05:59:48.250Z,15.50
2023-05-19T06:02:36.852Z,15.50
2023-05-19T06:05:25.237Z,15.60
2023-05-19T06:08:13.213Z,15.60
2023-05-19T06:11:00.512Z,15.70
2023-05-19T06:13:47.786Z,15.70
2023-05-19T06:16:35.081Z,15.80
2023-05-19T06:19:22.586Z,15.90
2023-05-19T06:22:09.940Z,15.90
2023-05-19T06:24:59.242Z,16.00
2023-05-19T06:27:46.766Z,16.00
2023-05-19T06:30:34.341Z,16.10
2023-05-19T06:33:21.775Z,16.10
2023-05-19T06:36:10.208Z,16.20
2023-05-19T06:38:57.776Z,16.20
2023-05-19T06:41:45.020Z,16.30
2023-05-19T06:44:32.231Z,16.30
2023-05-19T06:47:19.941Z,16.40
2023-05-19T06:50:07.425Z,16.40
2023-05-19T06:52:54.897Z,16.50
2023-05-19T06:55:54.443Z,16.50
2023-05-19T06:58:45.994Z,16.60
2023-05-19T07:01:34.345Z,16.70
2023-05-19T07:04:21.695Z,16.70
2023-05-19T07:07:09.165Z,16.80
2023-05-19T07:09:56.485Z,16.80
2023-05-19T07:12:43.967Z,16.90
2023-05-19T07:15:31.275Z,17.00
2023-05-19T07:18:19.859Z,17.00
2023-05-19T07:21:07.537Z,17.10
2023-05-19T07:23:54.859Z,17.20
2023-05-19T07:26:42.879Z,17.30
2023-05-19T07:29:31.967Z,17.30
2023-05-19T07:32:19.309Z,17.40
2023-05-19T07:35:07.052Z,17.40
2023-05-19T07:37:54.334Z,17.50
2023-05-19T07:40:41.598Z,17.60
2023-05-19T07:43:28.842Z,17.70
2023-05-19T07:46:16.370Z,17.70
2023-05-19T07:49:04.508Z,17.80
2023-05-19T07:51:51.942Z,17.90
2023-05-19T07:54:39.150Z,17.90
2023-05-19T07:57:26.443Z,18.00
2023-05-19T08:00:14.182Z,18.00
2023-05-19T08:03:02.337Z,18.10
2023-05-19T08:05:49.682Z,18.20
2023-05-19T08:08:36.981Z,18.30
2023-05-19T08:11:24.324Z,18.30
2023-05-19T08:14:11.592Z,18.40
2023-05-19T08:16:58.864Z,18.40
2023-05-19T08:19:46.096Z,18.50
2023-05-19T08:22:33.359Z,18.60
2023-05-19T08:25:20.771Z,18.70
2023-05-19T08:28:08.080Z,18.70
2023-05-19T08:30:55.818Z,18.80
2023-05-19T08:33:43.172Z,18.90
2023-05-19T08:36:30.752Z,18.90
2023-05-19T08:39:19.684Z,19.00
2023-05-19T08:42:10.199Z,19.10
2023-05-19T08:44:58.059Z,19.10
2023-05-19T08:47:51.366Z,19.20
2023-05-19T08:50:42.065Z,19.30
2023-05-19T08:53:39.800Z,19.40
2023-05-19T08:56:27.824Z,19.40
2023-05-19T08:59:16.036Z,19.50
2023-05-19T09:02:04.769Z,19.60
2023-05-19T09:04:53.395Z,19.70
2023-05-19T09:07:43.286Z,19.80
2023-05-19T09:10:30.666Z,19.80
2023-05-19T09:13:17.995Z,19.90
2023-05-19T09:16:05.659Z,20.00
2023-05-19T09:18:57.934Z,20.00
2023-05-19T09:21:46.412Z,20.20
2023-05-19T09:24:34.707Z,20.10
2023-05-19T09:27:23.695Z,20.20
2023-05-19T09:30:11.282Z,20.30
2023-05-19T09:32:59.048Z,20.40
2023-05-19T09:35:49.312Z,20.40
2023-05-19T09:38:37.532Z,20.50
2023-05-19T09:41:24.968Z,20.60
2023-05-19T09:44:21.453Z,20.70
2023-05-19T09:47:10.503Z,20.70
2023-05-19T09:49:58.618Z,20.80
2023-05-19T09:52:46.113Z,20.90
2023-05-19T09:55:34.734Z,20.90
2023-05-19T09:58:22.736Z,21.00
2023-05-19T10:01:10.213Z,21.10
2023-05-19T10:03:58.087Z,21.10
2023-05-19T10:06:46.266Z,21.10
2023-05-19T10:09:36.578Z,21.20
2023-05-19T10:12:26.155Z,21.20
2023-05-19T10:15:15.659Z,21.30
2023-05-19T10:18:03.822Z,21.40
2023-05-19T10:20:52.294Z,21.40
2023-05-19T10:23:39.796Z,21.50
2023-05-19T10:26:28.108Z,21.70
2023-05-19T10:29:22.404Z,21.80
2023-05-19T10:32:17.896Z,21.90
2023-05-19T10:35:21.323Z,22.10
2023-05-19T10:38:19.415Z,22.20
2023-05-19T10:41:37.210Z,22.30
2023-05-19T10:44:43.808Z,22.40
2023-05-19T10:47:32.520Z,22.50
2023-05-19T10:50:20.772Z,22.50
2023-05-19T10:53:22.742Z,22.50
2023-05-19T10:56:10.462Z,22.50
2023-05-19T10:58:57.884Z,22.60
2023-05-19T11:01:45.174Z,22.60
2023-05-19T11:04:54.105Z,22.60
2023-05-19T11:07:54.433Z,22.60
2023-05-19T11:10:46.134Z,22.60
2023-05-19T11:13:34.134Z,22.70
2023-05-19T11:16:32.533Z,22.70
2023-05-19T11:19:27.530Z,22.80
2023-05-19T11:22:14.860Z,22.80
2023-05-19T11:25:02.191Z,22.90
2023-05-19T11:27:51.415Z,22.80
2023-05-19T11:30:39.982Z,22.80
2023-05-19T11:33:27.673Z,22.80
2023-05-19T11:36:16.736Z,22.90
2023-05-19T11:39:06.047Z,23.00
2023-05-19T11:41:55.972Z,23.10
2023-05-19T11:44:46.343Z,23.20
2023-05-19T11:47:42.078Z,23.20
2023-05-19T11:50:42.144Z,23.30
2023-05-19T11:53:33.288Z,23.30
2023-05-19T11:56:22.093Z,23.30
2023-05-19T11:59:10.061Z,23.40
2023-05-19T12:01:57.333Z,23.30
2023-05-19T12:04:44.702Z,23.30
2023-05-19T12:07:32.001Z,23.40
2023-05-19T12:10:27.260Z,23.40
2023-05-19T12:13:15.128Z,23.50
2023-05-19T12:16:04.416Z,23.60
2023-05-19T12:18:54.582Z,23.70
2023-05-19T12:21:42.231Z,23.70
2023-05-19T12:24:29.584Z,23.80
2023-05-19T12:27:24.524Z,23.80
2023-05-19T12:30:15.623Z,23.80
2023-05-19T12:33:03.308Z,23.90
2023-05-19T12:35:51.459Z,23.90
2023-05-19T12:38:39.607Z,24.00
2023-05-19T12:41:27.444Z,24.00
2023-05-19T12:44:18.351Z,24.00
2023-05-19T12:47:07.193Z,24.10
2023-05-19T12:50:08.773Z,24.10
2023-05-19T12:52:56.585Z,24.20
2023-05-19T12:55:45.731Z,24.20
2023-05-19T12:58:34.345Z,24.30
2023-05-19T13:01:23.119Z,24.40
2023-05-19T13:04:10.600Z,24.40
2023-05-19T13:06:58.178Z,24.40
2023-05-19T13:09:45.388Z,24.40
2023-05-19T13:12:32.858Z,24.40
2023-05-19T13:15:20.816Z,24.40
2023-05-19T13:18:09.619Z,24.50
2023-05-19T13:20:56.907Z,24.60
2023-05-19T13:23:44.167Z,24.60
2023-05-19T13:26:31.583Z,24.60
2023-05-19T13:29:18.843Z,24.60
2023-05-19T13:32:06.458Z,24.70
2023-05-19T13:34:53.717Z,24.80
2023-05-19T13:37:42.444Z,24.90
2023-05-19T13:40:33.039Z,24.90
2023-05-19T13:43:20.506Z,24.90
2023-05-19T13:46:07.848Z,24.80
2023-05-19T13:48:55.328Z,24.90
2023-05-19T13:51:45.816Z,24.90
2023-05-19T13:54:33.808Z,24.90
2023-05-19T13:57:21.153Z,25.00
2023-05-19T14:00:10.737Z,25.10
2023-05-19T14:02:58.323Z,25.20
2023-05-19T14:05:45.832Z,25.30
2023-05-19T14:08:33.165Z,25.30
2023-05-19T14:11:21.868Z,25.40
2023-05-19T14:14:11.336Z,25.40
2023-05-19T14:16:58.858Z,25.50
2023-05-19T14:19:46.184Z,25.50
2023-05-19T14:22:33.654Z,25.50
2023-05-19T14:25:21.232Z,25.60
2023-05-19T14:28:10.685Z,25.60
2023-05-19T14:30:58.037Z,25.60
2023-05-19T14:33:45.414Z,25.70
2023-05-19T14:36:35.119Z,25.70
2023-05-19T14:39:22.442Z,25.70
2023-05-19T14:42:09.706Z,25.70
2023-05-19T14:44:57.045Z,25.80
2023-05-19T14:47:44.532Z,25.80
2023-05-19T14:50:32.042Z,25.80
2023-05-19T14:53:19.646Z,25.90
2023-05-19T14:56:07.535Z,25.90
2023-05-19T14:58:54.901Z,26.00
2023-05-19T15:01:42.360Z,26.10
2023-05-19T15:04:29.939Z,26.30
2023-05-19T15:07:17.482Z,26.40
2023-05-19T15:10:05.335Z,26.40
2023-05-19T15:12:52.701Z,26.50
2023-05-19T15:15:39.985Z,26.50
2023-05-19T15:18:27.275Z,26.60
2023-05-19T15:21:14.523Z,26.60
2023-05-19T15:24:01.797Z,26.80
2023-05-19T15:26:49.108Z,27.00
2023-05-19T15:29:36.620Z,27.20
2023-05-19T15:32:24.173Z,27.70
2023-05-19T15:35:11.500Z,28.40
2023-05-19T15:38:04.688Z,29.10
2023-05-19T15:40:51.965Z,29.80
2023-05-19T15:43:40.011Z,30.70
2023-05-19T15:46:27.409Z,31.60
2023-05-19T15:49:14.733Z,32.60
2023-05-19T15:52:03.198Z,33.60
2023-05-19T15:54:50.421Z,34.50
2023-05-19T15:57:37.768Z,35.30
2023-05-19T16:00:25.130Z,36.00
2023-05-19T16:03:12.700Z,36.60
2023-05-19T16:06:01.008Z,37.20
2023-05-19T16:08:48.472Z,37.60
2023-05-19T16:11:35.773Z,38.00
2023-05-19T16:14:24.531Z,38.30
2023-05-19T16:17:13.732Z,38.80
2023-05-19T16:20:00.989Z,39.10
2023-05-19T16:22:48.221Z,39.00
2023-05-19T16:25:35.630Z,38.40
2023-05-19T16:28:24.981Z,38.10
2023-05-19T16:31:12.420Z,38.10
2023-05-19T16:33:59.697Z,38.30
2023-05-19T16:36:46.930Z,38.60
2023-05-19T16:39:37.101Z,39.00
2023-05-19T16:42:24.370Z,39.10
2023-05-19T16:45:11.727Z,38.70
2023-05-19T16:47:59.034Z,38.00
2023-05-19T16:50:49.106Z,37.10
2023-05-19T16:53:36.361Z,36.00
2023-05-19T16:56:23.676Z,35.20
2023-05-19T16:59:11.176Z,34.50
2023-05-19T17:01:58.508Z,34.30
2023-05-19T17:04:45.783Z,34.10
2023-05-19T17:07:33.110Z,34.30
2023-05-19T17:10:20.528Z,34.70
2023-05-19T17:13:07.990Z,35.00
2023-05-19T17:15:55.307Z,35.00
2023-05-19T17:18:43.907Z,34.60
2023-05-19T17:21:31.798Z,34.10
2023-05-19T17:24:19.169Z,33.70
2023-05-19T17:27:06.573Z,33.30
2023-05-19T17:29:53.865Z,33.10
2023-05-19T17:32:41.521Z,32.90
2023-05-19T17:35:28.943Z,32.50
2023-05-19T17:38:16.186Z,32.40
2023-05-19T17:41:09.602Z,32.30
2023-05-19T17:43:56.884Z,32.30
2023-05-19T17:46:44.235Z,32.40
2023-05-19T17:49:31.601Z,32.40
2023-05-19T17:52:23.173Z,32.40
2023-05-19T17:55:11.846Z,32.30
2023-05-19T17:57:59.562Z,32.00
2023-05-19T18:00:47.031Z,31.60
2023-05-19T18:03:34.726Z,31.10
2023-05-19T18:06:24.128Z,30.70
2023-05-19T18:09:13.314Z,30.20
2023-05-19T18:12:02.399Z,29.80
2023-05-19T18:14:50.704Z,29.50
2023-05-19T18:17:38.019Z,29.20
2023-05-19T18:20:25.462Z,28.90
2023-05-19T18:23:12.757Z,28.60
2023-05-19T18:26:00.062Z,28.40
2023-05-19T18:28:47.416Z,28.20
2023-05-19T18:31:34.844Z,28.00
2023-05-19T18:34:22.151Z,27.80
2023-05-19T18:37:09.396Z,27.60
2023-05-19T18:39:56.679Z,27.50
2023-05-19T18:42:44.001Z,27.40
2023-05-19T18:45:31.315Z,27.30
2023-05-19T18:48:18.784Z,27.10
2023-05-19T18:51:07.356Z,27.00
2023-05-19T18:53:54.588Z,26.90
2023-05-19T18:56:42.162Z,26.80
2023-05-19T18:59:29.588Z,26.70
2023-05-19T19:02:16.825Z,26.50
2023-05-19T19:05:05.053Z,26.50
2023-05-19T19:07:53.388Z,26.40
2023-05-19T19:10:40.789Z,26.30
2023-05-19T19:13:28.609Z,26.20
2023-05-19T19:16:15.865Z,26.10
2023-05-19T19:19:03.295Z,26.00
2023-05-19T19:21:50.960Z,25.90
2023-05-19T19:24:38.455Z,25.80
2023-05-19T19:27:30.995Z,25.70
2023-05-19T19:30:18.417Z,25.60
2023-05-19T19:33:06.800Z,25.60
2023-05-19T19:35:54.800Z,25.50
2023-05-19T19:38:42.020Z,25.40
2023-05-19T19:41:29.852Z,25.40
2023-05-19T19:44:17.209Z,25.30
2023-05-19T19:47:07.694Z,25.20
2023-05-19T19:49:55.988Z,25.00
2023-05-19T19:52:43.279Z,24.90
2023-05-19T19:55:33.220Z,24.70
2023-05-19T19:58:20.449Z,24.60
2023-05-19T20:01:08.464Z,24.50
2023-05-19T20:03:57.028Z,24.40
2023-05-19T20:06:44.644Z,24.30
2023-05-19T20:09:31.900Z,24.20
2023-05-19T20:12:19.276Z,24.10
2023-05-19T20:15:07.249Z,24.10
2023-05-19T20:17:54.495Z,24.00
2023-05-19T20:20:42.538Z,23.90
2023-05-19T20:23:29.785Z,23.80
2023-05-19T20:26:17.486Z,23.70
2023-05-19T20:29:04.700Z,23.60
2023-05-19T20:31:51.950Z,23.60
2023-05-19T20:34:39.322Z,23.50
2023-05-19T20:37:26.621Z,23.50
2023-05-19T20:40:13.932Z,23.40
2023-05-19T20:43:01.202Z,23.40
2023-05-19T20:45:48.616Z,23.30
2023-05-19T20:48:36.310Z,23.20
2023-05-19T20:51:25.272Z,23.20
2023-05-19T20:54:12.644Z,23.20
2023-05-19T20:56:59.914Z,23.10
2023-05-19T20:59:47.165Z,23.10
2023-05-19T21:02:34.454Z,23.00
2023-05-19T21:05:21.760Z,23.00
2023-05-19T21:08:12.794Z,23.00
2023-05-19T21:11:00.244Z,22.90
2023-05-19T21:13:47.548Z,22.80
2023-05-19T21:16:38.736Z,22.80
2023-05-19T21:19:26.275Z,22.70
2023-05-19T21:22:13.708Z,22.60
2023-05-19T21:25:01.010Z,22.60
2023-05-19T21:27:48.375Z,22.50
2023-05-19T21:30:35.815Z,22.40
2023-05-19T21:33:23.294Z,22.30
2023-05-19T21:36:10.696Z,22.30
2023-05-19T21:38:57.955Z,22.20
2023-05-19T21:41:45.285Z,22.20
2023-05-19T21:44:32.643Z,22.10
2023-05-19T21:47:19.877Z,22.10
2023-05-19T21:50:07.840Z,22.10
2023-05-19T21:52:55.105Z,22.00
2023-05-19T21:55:42.667Z,22.00
2023-05-19T21:58:30.028Z,21.90
2023-05-19T22:01:17.549Z,21.90
2023-05-19T22:04:05.402Z,21.80
2023-05-19T22:06:52.626Z,21.70
2023-05-19T22:09:39.950Z,21.60
2023-05-19T22:12:27.287Z,21.60
2023-05-19T22:15:15.953Z,21.50
2023-05-19T22:18:03.268Z,21.40
2023-05-19T22:20:50.780Z,21.30
2023-05-19T22:23:38.038Z,21.20
2023-05-19T22:26:26.070Z,21.20
2023-05-19T22:29:15.839Z,21.10
2023-05-19T22:32:03.127Z,21.00
2023-05-19T22:34:50.605Z,21.00
2023-05-19T22:37:38.387Z,21.00
2023-05-19T22:40:25.725Z,20.90
2023-05-19T22:43:13.131Z,20.80
2023-05-19T22:46:00.472Z,20.80
2023-05-19T22:48:47.742Z,20.80
2023-05-19T22:51:34.986Z,20.70
2023-05-19T22:54:22.227Z,20.70
2023-05-19T22:57:10.109Z,20.70
2023-05-19T22:59:57.572Z,20.60
2023-05-19T23:02:45.041Z,20.60
2023-05-19T23:05:32.527Z,20.60
2023-05-19T23:08:19.911Z,20.50
2023-05-19T23:11:07.655Z,20.40
2023-05-19T23:13:54.934Z,20.40
2023-05-19T23:16:42.228Z,20.30
2023-05-19T23:19:31.925Z,20.30
2023-05-19T23:22:19.526Z,20.30
2023-05-19T23:25:07.974Z,20.30
2023-05-19T23:27:55.315Z,20.20
2023-05-19T23:30:42.614Z,20.20
2023-05-19T23:33:29.932Z,20.10
2023-05-19T23:36:17.859Z,20.00
2023-05-19T23:39:05.147Z,20.00
2023-05-19T23:41:52.362Z,19.90
2023-05-19T23:44:39.642Z,19.80
2023-05-19T23:47:27.082Z,19.80
2023-05-19T23:50:14.380Z,19.70
2023-05-19T23:53:01.943Z,19.70
2023-05-19T23:55:49.243Z,19.70
2023-05-19T23:58:36.429Z,19.60
